TimeCST,TemperatureF,Dew PointF,Humidity,Sea Level PressureIn,VisibilityMPH,Wind Direction,Wind SpeedMPH,Gust SpeedMPH,PrecipitationIn,Events,Conditions,WindDirDegrees,DateUTC
12:52 AM,17.1,10.9,77,30.20,10.0,WSW,17.3,-,N/A,,Clear,240,2013-01-04 06:52:00
1:52 AM,17.1,10.9,77,30.19,10.0,WSW,16.1,-,N/A,,Clear,250,2013-01-04 07:52:00
2:52 AM,17.1,10.9,77,30.19,10.0,WSW,17.3,-,N/A,,Clear,250,2013-01-04 08:52:00
3:52 AM,18.0,12.0,78,30.16,10.0,WSW,19.6,-,N/A,,Clear,250,2013-01-04 09:52:00
4:52 AM,19.0,12.0,74,30.15,10.0,West,20.7,-,N/A,,Clear,260,2013-01-04 10:52:00
5:52 AM,18.0,10.9,74,30.16,10.0,WSW,16.1,-,N/A,,Clear,250,2013-01-04 11:52:00
6:52 AM,18.0,10.9,74,30.14,10.0,WSW,25.3,-,N/A,,Clear,240,2013-01-04 12:52:00
7:52 AM,16.0,10.0,77,30.16,10.0,WSW,18.4,-,N/A,,Clear,240,2013-01-04 13:52:00
8:52 AM,17.1,10.0,74,30.15,10.0,WSW,18.4,-,N/A,,Clear,240,2013-01-04 14:52:00
9:52 AM,18.0,10.9,74,30.19,10.0,WSW,12.7,-,N/A,,Clear,250,2013-01-04 15:52:00
10:52 AM,19.9,12.9,74,30.20,10.0,WSW,15.0,-,N/A,,Clear,250,2013-01-04 16:52:00
11:52 AM,23.0,14.0,68,30.19,10.0,WSW,10.4,-,N/A,,Clear,240,2013-01-04 17:52:00
12:52 PM,24.1,16.0,71,30.17,10.0,WSW,12.7,-,N/A,,Clear,240,2013-01-04 18:52:00
1:52 PM,26.1,17.1,69,30.17,10.0,WSW,8.1,-,N/A,,Clear,250,2013-01-04 19:52:00
2:52 PM,27.0,18.0,69,30.16,10.0,SW,4.6,-,N/A,,Clear,230,2013-01-04 20:52:00
3:52 PM,25.0,18.0,75,30.17,10.0,SW,9.2,-,N/A,,Clear,230,2013-01-04 21:52:00
4:52 PM,21.9,15.1,75,30.16,10.0,SW,6.9,-,N/A,,Clear,220,2013-01-04 22:52:00
5:52 PM,19.9,12.9,74,30.18,10.0,WSW,8.1,-,N/A,,Clear,250,2013-01-04 23:52:00
7:52 PM,17.1,10.9,77,30.17,10.0,Calm,Calm,-,N/A,,Clear,0,2013-01-05 01:52:00
8:52 PM,16.0,10.0,77,30.17,10.0,SSW,6.9,-,N/A,,Clear,200,2013-01-05 02:52:00
9:52 PM,10.9,8.1,88,30.15,9.0,SSW,4.6,-,N/A,,Clear,200,2013-01-05 03:52:00
10:52 PM,12.0,8.1,84,30.17,9.0,SSW,8.1,-,N/A,,Clear,200,2013-01-05 04:52:00
11:52 PM,10.0,6.1,84,30.15,9.0,SW,6.9,-,N/A,,Clear,220,2013-01-05 05:52:00